Time;durP1;ratioP1;P1;durP2;ratioP2;P2;SDS_P1;SDS_P2;PMS_P1;PMS_P2;Temp;Humidity;BMP_temperature;BMP_pressure;BME280_temperature;BME280_humidity;BME280_pressure;Samples;Min_cycle;Max_cycle;Signal;HPM_P1;HPM_P2
2020/12/07 00:01:37;;;;;;;35.42;16.90;;;;;;;1.35;93.37;95339.59;5029363;28;20033;-76
2020/12/07 00:04:04;;;;;;;36.30;16.58;;;;;;;1.36;93.25;95348.09;5030006;28;20021;-76
2020/12/07 00:06:30;;;;;;;36.50;17.20;;;;;;;1.37;92.82;95345.31;5029386;28;20124;-76
2020/12/07 00:08:58;;;;;;;33.40;16.35;;;;;;;1.49;93.14;95347.78;5046965;28;20098;-76
2020/12/07 00:11:23;;;;;;;37.75;16.15;;;;;;;1.43;93.00;95346.16;5029769;28;20049;-76
2020/12/07 00:13:49;;;;;;;37.65;17.20;;;;;;;1.37;93.18;95349.63;5029464;28;20128;-77
2020/12/07 00:16:15;;;;;;;38.72;17.63;;;;;;;1.37;93.19;95340.19;5029391;28;20036;-77
2020/12/07 00:18:40;;;;;;;42.63;18.77;;;;;;;1.40;92.86;95347.38;5028880;28;20041;-76
2020/12/07 00:21:10;;;;;;;39.33;19.02;;;;;;;1.42;93.12;95342.03;5029217;28;20049;-77
2020/12/07 00:23:36;;;;;;;47.13;20.30;;;;;;;1.38;92.92;95359.66;5043759;28;20060;-77
2020/12/07 00:26:05;;;;;;;40.75;17.92;;;;;;;1.37;92.87;95370.16;5046070;28;20033;-77
2020/12/07 00:28:32;;;;;;;39.17;17.55;;;;;;;1.36;93.17;95376.31;5045724;28;20025;-77
2020/12/07 00:31:00;;;;;;;42.58;18.25;;;;;;;1.41;93.08;95381.50;5037459;28;20040;-76
2020/12/07 00:33:25;;;;;;;34.58;16.98;;;;;;;1.39;92.85;95376.63;5028979;28;20041;-77
2020/12/07 00:35:51;;;;;;;38.63;17.48;;;;;;;1.45;92.92;95364.66;5046570;28;20052;-77
2020/12/07 00:38:16;;;;;;;44.95;20.33;;;;;;;1.39;93.37;95353.53;5009368;28;20037;-76
2020/12/07 00:40:42;;;;;;;64.00;24.55;;;;;;;1.34;92.69;95348.31;5010067;28;20512;-76
2020/12/07 00:43:08;;;;;;;75.10;30.70;;;;;;;1.30;93.18;95336.94;5046022;28;20120;-76
2020/12/07 00:45:36;;;;;;;64.43;27.80;;;;;;;1.36;93.13;95342.97;5029175;28;20477;-76
2020/12/07 00:48:02;;;;;;;48.28;20.75;;;;;;;1.39;92.93;95345.03;5029459;28;20502;-76
2020/12/07 00:50:28;;;;;;;45.15;20.77;;;;;;;1.44;92.72;95347.69;5028330;28;20036;-76
2020/12/07 00:52:54;;;;;;;39.85;18.80;;;;;;;1.46;93.10;95345.69;5034450;28;20059;-77
2020/12/07 00:55:20;;;;;;;48.40;20.70;;;;;;;1.44;92.71;95343.38;5045965;28;20624;-76
2020/12/07 00:57:46;;;;;;;47.15;21.50;;;;;;;1.50;92.77;95357.03;5028319;28;20098;-77
2020/12/07 01:00:16;;;;;;;42.42;18.85;;;;;;;1.47;92.52;95357.50;5029593;28;20029;-77
2020/12/07 01:02:42;;;;;;;49.50;20.83;;;;;;;1.45;92.45;95352.59;5029508;28;20029;-77
2020/12/07 01:05:08;;;;;;;38.65;16.33;;;;;;;1.37;92.42;95352.19;5047228;28;20047;-77
2020/12/07 01:07:34;;;;;;;37.75;16.35;;;;;;;1.42;92.47;95354.84;5045209;28;20033;-77
2020/12/07 01:10:00;;;;;;;37.42;17.38;;;;;;;1.46;92.06;95356.72;5028608;28;20269;-77
2020/12/07 01:12:25;;;;;;;36.17;16.20;;;;;;;1.48;92.35;95364.19;5033850;28;20037;-77
2020/12/07 01:14:52;;;;;;;36.42;16.20;;;;;;;1.48;91.85;95356.50;5047139;28;20111;-77
2020/12/07 01:17:18;;;;;;;38.72;17.02;;;;;;;1.46;92.45;95366.22;5055942;28;20137;-77
2020/12/07 01:19:52;;;;;;;37.10;16.90;;;;;;;1.50;92.06;95357.03;5029306;28;20100;-77
2020/12/07 01:22:18;;;;;;;31.83;14.18;;;;;;;1.43;92.21;95352.06;5024304;28;20021;-76
2020/12/07 01:24:43;;;;;;;33.97;14.68;;;;;;;1.42;92.18;95354.84;5030433;28;20056;-76
2020/12/07 01:27:09;;;;;;;35.63;16.83;;;;;;;1.38;92.78;95353.75;5046713;28;20032;-76
2020/12/07 01:29:35;;;;;;;37.97;17.88;;;;;;;1.30;93.08;95358.25;5046108;28;20044;-76
2020/12/07 01:32:00;;;;;;;42.22;16.95;;;;;;;1.26;92.93;95357.16;5045578;28;20454;-76
2020/12/07 01:34:28;;;;;;;37.10;15.70;;;;;;;1.30;92.55;95352.34;5046179;28;20052;-76
2020/12/07 01:36:54;;;;;;;36.58;16.88;;;;;;;1.31;92.64;95341.84;5022360;28;20285;-76
2020/12/07 01:39:20;;;;;;;38.00;18.17;;;;;;;1.39;92.78;95345.03;5032301;28;20044;-76
2020/12/07 01:41:45;;;;;;;38.92;16.67;;;;;;;1.31;92.38;95339.28;5032515;28;20672;-77
2020/12/07 01:44:11;;;;;;;35.78;14.90;;;;;;;1.35;92.00;95328.56;5032259;28;20399;-77
2020/12/07 01:46:38;;;;;;;34.75;16.65;;;;;;;1.42;92.30;95324.88;5031490;28;20029;-77
2020/12/07 01:49:04;;;;;;;44.75;18.45;;;;;;;1.45;91.86;95336.44;5000881;28;20211;-76
2020/12/07 01:51:30;;;;;;;34.03;15.20;;;;;;;1.50;91.97;95332.16;5023834;28;20091;-76
2020/12/07 01:53:55;;;;;;;42.40;17.75;;;;;;;1.42;91.75;95344.59;5013216;28;20037;-77
2020/12/07 01:56:28;;;;;;;38.78;16.83;;;;;;;1.43;91.82;95351.28;5013943;28;20017;-77
2020/12/07 01:58:56;;;;;;;36.33;16.70;;;;;;;1.37;92.71;95347.06;5024462;28;20033;-77
2020/12/07 02:01:22;;;;;;;41.75;18.45;;;;;;;1.38;92.79;95348.63;5031426;28;20043;-77
2020/12/07 02:03:48;;;;;;;47.22;19.27;;;;;;;1.34;92.59;95335.50;5006416;28;20041;-76
2020/12/07 02:06:13;;;;;;;44.53;19.50;;;;;;;1.36;92.33;95337.84;5030829;28;20044;-76
2020/12/07 02:08:39;;;;;;;37.92;17.08;;;;;;;1.41;92.50;95351.50;5035263;28;20037;-76
2020/12/07 02:11:05;;;;;;;45.72;19.00;;;;;;;1.41;92.31;95355.88;5018530;28;20484;-76
2020/12/07 02:13:31;;;;;;;41.10;16.98;;;;;;;1.45;92.40;95354.38;5052020;28;20384;-77
2020/12/07 02:15:57;;;;;;;41.20;17.00;;;;;;;1.40;92.34;95344.03;5035141;28;20135;-76
2020/12/07 02:18:23;;;;;;;46.85;18.40;;;;;;;1.33;92.85;95346.75;5031850;28;20119;-77
2020/12/07 02:20:49;;;;;;;44.28;20.55;;;;;;;1.43;92.50;95362.31;5034664;28;20040;-77
2020/12/07 02:23:15;;;;;;;44.53;18.90;;;;;;;1.41;92.72;95361.00;5034856;28;20037;-76
2020/12/07 02:25:41;;;;;;;38.13;17.48;;;;;;;1.41;92.86;95361.78;5052993;28;20033;-76
2020/12/07 02:28:08;;;;;;;44.05;19.67;;;;;;;1.42;92.59;95362.53;5042042;28;20037;-76
2020/12/07 02:30:33;;;;;;;41.88;19.13;;;;;;;1.45;92.47;95364.66;5031165;28;20071;-76
2020/12/07 02:32:59;;;;;;;41.00;19.88;;;;;;;1.49;92.36;95369.09;5042497;28;20119;-76
2020/12/07 02:35:25;;;;;;;42.40;19.38;;;;;;;1.57;91.93;95362.78;5030651;28;20558;-76
2020/12/07 02:37:51;;;;;;;46.25;20.50;;;;;;;1.46;92.29;95363.66;5034290;28;20032;-76
2020/12/07 02:40:17;;;;;;;52.33;21.52;;;;;;;1.47;91.88;95352.38;5034472;28;20037;-76
2020/12/07 02:42:44;;;;;;;49.70;20.17;;;;;;;1.44;92.61;95345.94;5052540;28;20036;-77
2020/12/07 02:45:14;;;;;;;53.70;23.00;;;;;;;1.41;92.06;95350.75;5034436;28;20025;-77
2020/12/07 02:47:41;;;;;;;49.38;21.00;;;;;;;1.37;92.58;95349.63;5034803;28;20621;-76
2020/12/07 02:50:07;;;;;;;47.15;20.08;;;;;;;1.41;92.32;95348.19;5034562;28;20531;-77
2020/12/07 02:52:34;;;;;;;50.30;22.13;;;;;;;1.39;92.52;95360.44;5034038;28;20063;-77
2020/12/07 02:55:06;;;;;;;46.70;21.17;;;;;;;1.36;92.18;95366.81;5034740;28;20032;-76
2020/12/07 02:57:31;;;;;;;51.25;21.75;;;;;;;1.37;92.33;95360.69;5034582;28;20024;-77
2020/12/07 02:59:58;;;;;;;48.75;22.23;;;;;;;1.40;92.50;95359.44;5033780;28;20037;-76
2020/12/07 03:02:23;;;;;;;45.53;20.80;;;;;;;1.32;92.14;95363.16;5034251;28;20033;-76
2020/12/07 03:04:57;;;;;;;46.90;21.85;;;;;;;1.31;92.77;95364.16;5018462;28;20037;-77
2020/12/07 03:07:23;;;;;;;48.42;22.00;;;;;;;1.24;92.24;95382.25;5052177;28;20029;-77
2020/12/07 03:09:49;;;;;;;50.40;21.10;;;;;;;1.29;92.65;95379.00;5052304;28;20059;-76
2020/12/07 03:12:15;;;;;;;43.80;19.23;;;;;;;1.32;92.53;95386.25;5034007;28;20028;-77
2020/12/07 03:14:42;;;;;;;49.20;22.60;;;;;;;1.36;92.16;95382.19;5033645;28;20033;-77
2020/12/07 03:17:07;;;;;;;48.45;22.17;;;;;;;1.26;92.28;95394.84;5030822;28;20075;-77
2020/12/07 03:19:33;;;;;;;47.50;21.23;;;;;;;1.29;92.23;95397.72;5014626;28;20511;-76
2020/12/07 03:21:59;;;;;;;40.03;18.92;;;;;;;1.29;92.38;95402.06;5020873;28;20034;-76
2020/12/07 03:24:25;;;;;;;47.25;20.52;;;;;;;1.35;92.25;95401.13;4997328;28;20642;-76
2020/12/07 03:26:51;;;;;;;45.97;20.83;;;;;;;1.39;91.79;95391.19;5014203;28;20046;-76
2020/12/07 03:29:16;;;;;;;46.95;21.45;;;;;;;1.31;92.11;95377.75;5016536;28;20388;-76
2020/12/07 03:31:42;;;;;;;44.63;20.23;;;;;;;1.26;92.14;95382.78;5015792;28;20040;-76
2020/12/07 03:34:11;;;;;;;50.38;22.60;;;;;;;1.14;91.92;95381.28;5051048;28;20048;-76
2020/12/07 03:36:40;;;;;;;46.60;20.85;;;;;;;1.12;92.27;95381.50;5033436;28;20503;-77
2020/12/07 03:39:06;;;;;;;41.92;17.65;;;;;;;1.18;91.99;95380.59;5051360;28;20167;-76
2020/12/07 03:41:32;;;;;;;36.78;19.00;;;;;;;1.16;92.03;95374.91;5033901;28;20044;-77
2020/12/07 03:43:58;;;;;;;37.08;18.98;;;;;;;1.20;91.49;95373.47;5033006;28;20037;-76
2020/12/07 03:46:24;;;;;;;37.95;18.05;;;;;;;1.21;91.71;95375.00;5050377;28;20037;-77
2020/12/07 03:48:51;;;;;;;35.70;17.42;;;;;;;1.09;91.49;95379.41;5033529;28;20561;-76
2020/12/07 03:51:16;;;;;;;36.20;17.88;;;;;;;1.15;91.29;95380.25;5032583;28;20053;-76
2020/12/07 03:53:42;;;;;;;34.20;16.15;;;;;;;1.11;91.67;95369.69;5033297;28;20107;-77
2020/12/07 03:56:09;;;;;;;35.30;17.10;;;;;;;1.15;91.30;95364.88;5050750;28;20040;-76
2020/12/07 03:58:35;;;;;;;35.00;16.58;;;;;;;1.11;91.80;95374.81;5023327;28;20047;-77
2020/12/07 04:01:01;;;;;;;35.80;18.15;;;;;;;1.12;91.79;95372.03;5013095;28;20030;-77
2020/12/07 04:03:28;;;;;;;32.85;17.27;;;;;;;1.05;91.28;95360.38;4980440;28;20120;-76
2020/12/07 04:08:22;;;;;;;34.22;16.75;;;;;;;1.00;92.09;95362.84;5033381;28;20037;-77
2020/12/07 04:10:48;;;;;;;32.55;17.30;;;;;;;1.04;92.20;95359.56;5016605;28;20554;-77
2020/12/07 04:13:14;;;;;;;34.90;16.08;;;;;;;1.02;91.67;95373.63;5032650;28;20075;-76
2020/12/07 04:15:40;;;;;;;34.40;16.77;;;;;;;1.06;92.21;95374.72;5033378;28;20017;-77
2020/12/07 04:18:07;;;;;;;31.45;14.90;;;;;;;0.95;92.50;95370.44;5050626;28;20041;-76
2020/12/07 04:20:33;;;;;;;40.08;17.85;;;;;;;0.96;92.01;95371.97;5033146;28;20066;-76
2020/12/07 04:22:59;;;;;;;32.20;15.57;;;;;;;0.99;92.41;95376.66;4988463;28;20038;-76
2020/12/07 04:25:25;;;;;;;34.67;17.02;;;;;;;1.09;91.60;95384.53;5026709;28;20068;-77
2020/12/07 04:27:51;;;;;;;34.13;16.90;;;;;;;1.01;92.10;95387.44;5013109;28;20463;-76
2020/12/07 04:30:19;;;;;;;32.88;16.80;;;;;;;0.91;92.10;95383.69;5026755;28;20475;-76
2020/12/07 04:32:44;;;;;;;34.42;17.15;;;;;;;1.00;92.39;95398.72;5029856;28;20074;-76
2020/12/07 04:35:10;;;;;;;37.28;16.90;;;;;;;0.88;91.98;95403.88;5050180;28;20053;-76
2020/12/07 04:37:35;;;;;;;34.97;16.17;;;;;;;0.85;92.74;95410.22;5048821;28;20048;-77
2020/12/07 04:40:03;;;;;;;35.15;16.13;;;;;;;0.84;92.42;95413.00;5032742;28;20438;-76
2020/12/07 04:42:31;;;;;;;32.90;15.73;;;;;;;0.82;93.04;95418.34;5032408;28;20063;-76
2020/12/07 04:44:57;;;;;;;31.90;17.13;;;;;;;0.88;92.53;95422.56;5049921;28;20122;-76
2020/12/07 04:47:24;;;;;;;33.42;15.43;;;;;;;0.85;92.71;95412.78;5015823;28;20080;-76
2020/12/07 04:49:53;;;;;;;28.73;15.60;;;;;;;1.00;92.50;95414.88;5032459;28;20033;-76
2020/12/07 04:52:19;;;;;;;32.70;15.50;;;;;;;0.99;91.72;95430.47;5031695;28;20033;-76
2020/12/07 04:54:47;;;;;;;33.03;16.35;;;;;;;1.01;91.96;95420.75;5032696;28;20041;-76
2020/12/07 04:57:14;;;;;;;30.70;15.18;;;;;;;1.05;91.66;95427.00;5032742;28;20361;-76
2020/12/07 04:59:40;;;;;;;30.17;14.20;;;;;;;1.03;91.86;95419.53;5031657;28;20029;-77
2020/12/07 05:02:06;;;;;;;29.65;14.63;;;;;;;1.04;91.83;95420.31;5032275;28;20037;-76
2020/12/07 05:04:32;;;;;;;31.80;15.63;;;;;;;0.96;91.47;95421.47;5032796;28;20029;-77
2020/12/07 05:07:07;;;;;;;33.63;15.95;;;;;;;1.07;91.49;95430.13;5032028;28;20134;-77
2020/12/07 05:09:35;;;;;;;32.55;16.38;;;;;;;1.02;91.42;95417.97;5035911;28;20032;-77
2020/12/07 05:12:04;;;;;;;34.13;16.08;;;;;;;1.03;90.90;95426.44;5036639;28;20048;-77
2020/12/07 05:14:30;;;;;;;33.35;16.67;;;;;;;0.92;91.61;95428.03;5036653;28;20033;-77
2020/12/07 05:16:55;;;;;;;34.70;16.33;;;;;;;0.88;92.30;95427.69;5036246;28;20025;-77
2020/12/07 05:19:23;;;;;;;35.25;16.55;;;;;;;0.89;91.39;95431.81;5036164;28;20349;-76
2020/12/07 05:21:49;;;;;;;30.52;16.02;;;;;;;0.88;92.06;95439.75;5031329;28;20049;-77
2020/12/07 05:24:16;;;;;;;34.13;16.75;;;;;;;0.89;91.47;95439.50;5041446;28;20469;-76
2020/12/07 05:26:43;;;;;;;34.47;16.60;;;;;;;0.91;91.55;95452.88;5016874;28;20032;-76
2020/12/07 05:29:14;;;;;;;30.48;14.95;;;;;;;0.84;91.61;95465.03;5019172;28;20088;-76
2020/12/07 05:31:41;;;;;;;28.25;15.57;;;;;;;0.85;91.92;95468.38;5053839;28;20112;-77
2020/12/07 05:34:07;;;;;;;33.35;16.60;;;;;;;0.79;92.27;95464.13;5035607;28;20060;-77
2020/12/07 05:36:35;;;;;;;36.53;16.27;;;;;;;0.72;92.49;95462.47;5052137;28;20063;-77
2020/12/07 05:39:04;;;;;;;34.03;15.38;;;;;;;0.74;92.19;95470.72;5036712;28;20024;-77
2020/12/07 05:41:31;;;;;;;32.50;16.38;;;;;;;0.90;91.58;95471.03;5053950;28;20036;-76
2020/12/07 05:43:58;;;;;;;36.42;16.92;;;;;;;0.84;92.00;95475.28;5034546;28;20078;-76
2020/12/07 05:46:28;;;;;;;43.00;16.63;;;;;;;0.68;92.58;95476.72;5031323;28;20030;-76
2020/12/07 05:48:56;;;;;;;38.38;17.17;;;;;;;0.71;92.36;95467.81;5035920;28;20483;-76
2020/12/07 05:51:24;;;;;;;36.90;15.90;;;;;;;0.80;92.21;95481.84;5026596;28;20040;-76
2020/12/07 05:53:50;;;;;;;36.60;16.45;;;;;;;0.80;92.39;95488.75;4999555;28;20056;-77
2020/12/07 05:56:18;;;;;;;35.53;16.50;;;;;;;0.77;91.95;95482.28;5016218;28;20422;-76
2020/12/07 05:59:07;;;;;;;38.03;17.35;;;;;;;0.81;92.29;95488.53;5023775;28;20025;-76
2020/12/07 06:01:33;;;;;;;38.28;17.35;;;;;;;0.79;92.08;95490.53;5034705;28;20063;-77
2020/12/07 06:03:59;;;;;;;40.10;16.73;;;;;;;0.79;92.12;95498.22;5034139;28;20021;-76
2020/12/07 06:06:35;;;;;;;36.03;16.35;;;;;;;0.77;91.75;95497.66;5034627;28;20033;-77
2020/12/07 06:09:02;;;;;;;;;;;;;;;0.80;92.74;95499.78;5052480;28;20028;-77
2020/12/07 06:11:28;;;;;;;31.75;15.85;;;;;;;0.79;92.12;95500.00;5020813;28;20477;-77
2020/12/07 06:13:54;;;;;;;37.65;16.25;;;;;;;0.88;91.88;95499.44;5034040;28;20029;-76
2020/12/07 06:16:20;;;;;;;28.77;14.38;;;;;;;0.77;91.66;95489.97;5033077;28;20021;-76
2020/12/07 06:18:46;;;;;;;34.70;16.30;;;;;;;0.72;91.84;95518.03;5034149;28;20059;-76
2020/12/07 06:21:18;;;;;;;33.25;16.50;;;;;;;0.67;92.40;95510.22;5028498;28;20036;-76
2020/12/07 06:23:44;;;;;;;34.67;16.63;;;;;;;0.70;92.36;95510.59;5011234;28;20042;-76
2020/12/07 06:26:12;;;;;;;33.38;16.35;;;;;;;0.75;92.42;95507.34;5014780;28;20036;-77
2020/12/07 06:28:40;;;;;;;29.63;15.68;;;;;;;0.71;91.79;95519.81;5015619;28;20117;-76
2020/12/07 06:31:16;;;;;;;37.30;17.33;;;;;;;0.65;92.38;95519.94;5034285;28;20052;-77
2020/12/07 06:33:48;;;;;;;29.10;14.50;;;;;;;0.65;92.71;95515.59;5008541;28;20045;-77
2020/12/07 06:36:25;;;;;;;32.50;14.85;;;;;;;0.60;92.54;95509.56;5021187;28;20032;-77
2020/12/07 06:38:51;;;;;;;33.55;16.63;;;;;;;0.63;92.22;95498.88;5033327;28;20057;-77
2020/12/07 06:41:32;;;;;;;33.85;16.10;;;;;;;0.74;91.88;95524.50;5033345;28;20025;-77
2020/12/07 06:43:59;;;;;;;31.88;15.13;;;;;;;0.66;91.54;95522.28;5032012;28;20094;-77
2020/12/07 06:46:52;;;;;;;32.10;15.93;;;;;;;0.66;91.77;95524.81;5032889;28;20052;-77
2020/12/07 06:49:23;;;;;;;32.78;15.45;;;;;;;0.70;92.27;95522.59;5036100;28;20110;-76
2020/12/07 06:51:55;;;;;;;30.63;16.75;;;;;;;0.68;91.88;95527.16;5040086;28;20025;-77
2020/12/07 06:57:26;;;;;;;29.73;14.98;;;;;;;0.72;91.70;95533.41;5032633;28;20036;-77
2020/12/07 07:00:16;;;;;;;32.08;15.52;;;;;;;0.75;91.99;95543.22;5031693;28;20040;-77
2020/12/07 07:02:49;;;;;;;31.20;14.68;;;;;;;0.64;91.76;95554.25;5036944;28;20037;-77
2020/12/07 07:05:19;;;;;;;32.08;15.73;;;;;;;0.56;92.60;95538.16;5016061;28;20024;-77
2020/12/07 07:07:47;;;;;;;32.78;15.73;;;;;;;0.63;92.05;95552.66;5019828;28;20040;-77
2020/12/07 07:10:14;;;;;;;33.42;15.90;;;;;;;0.64;92.29;95554.25;5012519;28;20439;-77
2020/12/07 07:12:41;;;;;;;33.38;15.18;;;;;;;0.53;92.03;95548.88;5012600;28;20041;-77
2020/12/07 07:15:09;;;;;;;33.97;15.63;;;;;;;0.63;92.08;95560.34;5024401;28;20115;-77
2020/12/07 07:17:36;;;;;;;30.90;15.15;;;;;;;0.63;92.43;95561.13;5015897;28;20029;-77
2020/12/07 07:20:05;;;;;;;31.08;15.02;;;;;;;0.55;92.81;95567.38;5032592;28;20497;-77
2020/12/07 07:22:30;;;;;;;32.25;15.40;;;;;;;0.66;92.20;95570.16;5009149;28;20392;-77
2020/12/07 07:30:12;;;;;;;28.95;15.15;;;;;;;0.74;91.98;95577.53;5026826;28;20476;-77
2020/12/07 07:32:46;;;;;;;23.92;12.77;;;;;;;0.72;91.61;95569.25;5031294;28;20036;-77
2020/12/07 07:35:13;;;;;;;28.17;14.35;;;;;;;0.70;91.73;95574.63;5031798;28;20120;-77
2020/12/07 07:37:39;;;;;;;30.20;14.30;;;;;;;0.63;91.86;95570.59;5026924;28;20036;-77
2020/12/07 07:40:17;;;;;;;28.25;14.80;;;;;;;0.66;92.78;95580.41;5031872;28;20100;-77
2020/12/07 07:43:00;;;;;;;28.38;14.40;;;;;;;0.71;92.09;95575.41;5031636;28;20079;-77
2020/12/07 07:45:37;;;;;;;29.38;13.35;;;;;;;0.70;91.58;95579.75;5031212;28;20055;-77
2020/12/07 07:50:53;;;;;;;25.10;13.05;;;;;;;0.70;92.53;95589.19;5048101;28;20033;-77
2020/12/07 07:54:01;;;;;;;26.02;14.00;;;;;;;0.58;92.89;95584.06;5031385;28;20021;-77
2020/12/07 08:03:19;;;;;;;27.30;13.98;;;;;;;0.82;92.33;95609.72;5031817;28;20033;-77
2020/12/07 08:13:09;;;;;;;28.38;13.75;;;;;;;0.80;91.69;95602.25;5034164;28;20029;-76
2020/12/07 08:15:44;;;;;;;31.80;15.43;;;;;;;0.68;92.34;95596.31;5048084;28;20041;-77
2020/12/07 08:18:10;;;;;;;26.50;15.07;;;;;;;0.80;92.20;95609.16;5042164;28;20032;-77
2020/12/07 08:20:48;;;;;;;27.23;15.07;;;;;;;0.78;91.97;95611.94;5048042;28;20086;-77
2020/12/07 08:23:14;;;;;;;27.55;15.32;;;;;;;0.71;92.24;95609.47;5021260;28;20028;-77
2020/12/07 08:25:50;;;;;;;28.95;16.38;;;;;;;0.71;92.20;95616.38;5053207;28;20037;-77
2020/12/07 08:28:34;;;;;;;27.88;14.93;;;;;;;0.79;92.34;95622.97;5014690;28;20033;-77
2020/12/07 08:31:07;;;;;;;25.60;14.68;;;;;;;0.87;92.21;95615.72;5048679;28;20479;-77
2020/12/07 08:34:01;;;;;;;29.40;16.98;;;;;;;0.90;91.96;95625.53;5020236;28;20112;-77
2020/12/07 08:36:30;;;;;;;32.45;16.48;;;;;;;0.82;92.57;95625.84;5013573;28;20091;-76
2020/12/07 08:38:56;;;;;;;28.52;15.15;;;;;;;0.83;92.23;95635.13;4994851;28;20037;-76
2020/12/07 08:41:27;;;;;;;30.90;16.48;;;;;;;0.82;92.40;95633.53;5033514;28;20078;-77
2020/12/07 08:43:55;;;;;;;25.63;14.75;;;;;;;0.90;93.15;95635.78;5043426;28;20029;-77
2020/12/07 08:46:23;;;;;;;29.70;16.70;;;;;;;0.88;92.10;95635.22;5030911;28;20552;-76
2020/12/07 08:48:49;;;;;;;27.88;16.13;;;;;;;0.94;91.29;95641.25;5030842;28;20090;-77
2020/12/07 08:51:19;;;;;;;29.67;16.75;;;;;;;0.92;92.39;95644.03;5030004;28;20032;-77
2020/12/07 08:53:45;;;;;;;29.35;15.38;;;;;;;0.98;91.47;95642.38;5012692;28;20033;-77
2020/12/07 08:56:16;;;;;;;29.25;16.27;;;;;;;0.97;91.60;95640.81;5037429;28;20033;-77
2020/12/07 08:58:42;;;;;;;29.08;15.90;;;;;;;1.01;92.35;95648.84;5029282;28;20087;-77
2020/12/07 09:01:09;;;;;;;28.90;16.45;;;;;;;0.97;91.51;95647.72;5024252;28;20025;-77
2020/12/07 09:03:36;;;;;;;32.03;15.85;;;;;;;0.90;92.34;95643.47;5040441;28;20511;-77
2020/12/07 09:06:06;;;;;;;31.27;17.20;;;;;;;1.03;91.84;95657.06;5028385;28;20480;-77
2020/12/07 09:08:33;;;;;;;27.15;15.40;;;;;;;0.96;92.01;95653.84;5029136;28;20041;-77
2020/12/07 09:10:58;;;;;;;32.40;17.13;;;;;;;0.96;92.36;95653.84;5029292;28;20041;-76
2020/12/07 09:13:28;;;;;;;34.50;17.75;;;;;;;1.02;92.10;95660.66;5015431;28;20420;-77
2020/12/07 09:15:53;;;;;;;36.08;17.65;;;;;;;1.02;92.13;95663.22;5007300;28;20292;-77
2020/12/07 09:18:20;;;;;;;34.95;18.98;;;;;;;0.99;92.11;95666.22;5028967;28;20035;-77
2020/12/07 09:20:47;;;;;;;33.30;16.02;;;;;;;0.97;91.89;95660.53;5020578;28;20040;-76
2020/12/07 09:23:13;;;;;;;33.00;16.58;;;;;;;1.00;92.17;95671.13;5020571;28;20044;-76
2020/12/07 09:25:39;;;;;;;29.15;17.17;;;;;;;1.03;92.57;95669.91;5027309;28;20388;-77
2020/12/07 09:28:05;;;;;;;31.27;17.45;;;;;;;1.09;91.94;95669.03;5012321;28;20447;-77
2020/12/07 09:30:32;;;;;;;32.40;16.58;;;;;;;1.11;91.94;95665.25;5037780;28;20030;-77
2020/12/07 09:32:58;;;;;;;31.80;17.15;;;;;;;1.14;92.03;95671.69;5015501;28;20127;-76
2020/12/07 09:35:27;;;;;;;30.45;16.85;;;;;;;1.09;92.48;95671.59;5044054;28;20368;-76
2020/12/07 09:37:55;;;;;;;27.67;15.35;;;;;;;1.09;92.65;95669.78;5048972;28;20467;-77
2020/12/07 09:40:21;;;;;;;28.17;15.52;;;;;;;1.19;91.89;95676.94;5028783;28;20070;-77
2020/12/07 09:42:46;;;;;;;26.65;14.43;;;;;;;1.18;91.82;95685.63;5025960;28;20047;-76
2020/12/07 09:45:12;;;;;;;32.60;17.25;;;;;;;1.14;92.31;95684.53;5034904;28;20079;-76
2020/12/07 09:47:38;;;;;;;29.88;15.10;;;;;;;1.19;92.42;95682.06;5026540;28;20053;-77
2020/12/07 09:50:07;;;;;;;23.80;12.75;;;;;;;1.24;92.41;95678.84;5046812;28;20077;-77
2020/12/07 09:52:33;;;;;;;24.98;13.52;;;;;;;1.29;92.12;95682.31;5013161;28;20021;-76
2020/12/07 09:55:01;;;;;;;25.48;13.60;;;;;;;1.26;92.18;95682.75;5005596;28;20127;-77
2020/12/07 09:57:27;;;;;;;25.55;13.95;;;;;;;1.35;91.61;95682.41;5049060;28;20025;-77
2020/12/07 09:59:52;;;;;;;23.90;12.98;;;;;;;1.32;91.11;95675.97;5036109;28;20036;-77
2020/12/07 10:02:19;;;;;;;24.05;13.55;;;;;;;1.37;91.13;95670.94;5030611;28;20037;-77
2020/12/07 10:04:45;;;;;;;18.73;11.05;;;;;;;1.27;91.04;95670.72;5025061;28;20043;-76
2020/12/07 10:07:12;;;;;;;18.50;10.23;;;;;;;1.30;91.00;95668.50;5011967;28;20037;-77
2020/12/07 10:09:38;;;;;;;20.73;11.27;;;;;;;1.28;91.05;95656.88;5011853;28;20033;-77
2020/12/07 10:12:04;;;;;;;19.42;9.75;;;;;;;1.28;90.38;95665.34;4995659;28;20083;-77
2020/12/07 10:14:33;;;;;;;18.98;10.15;;;;;;;1.24;90.45;95656.56;5030079;28;20494;-76
2020/12/07 10:17:00;;;;;;;18.00;10.63;;;;;;;1.33;91.30;95669.81;5031929;28;20021;-76
2020/12/07 10:19:26;;;;;;;18.00;10.48;;;;;;;1.24;90.60;95660.91;5033257;28;20503;-76
2020/12/07 10:21:54;;;;;;;19.90;10.60;;;;;;;1.22;90.97;95663.69;5035680;28;20033;-76
2020/12/07 10:24:20;;;;;;;20.17;10.85;;;;;;;1.24;90.71;95654.00;5036454;28;20056;-76
2020/12/07 10:26:48;;;;;;;24.20;12.68;;;;;;;1.24;90.80;95650.66;5029834;28;20043;-77
2020/12/07 10:29:14;;;;;;;20.88;11.00;;;;;;;1.34;90.31;95655.22;5023246;28;20041;-77
2020/12/07 10:31:40;;;;;;;19.92;10.68;;;;;;;1.33;90.19;95653.66;5031136;28;20033;-77
2020/12/07 10:34:06;;;;;;;17.48;9.75;;;;;;;1.29;90.35;95655.91;5022565;28;20107;-76
2020/12/07 10:36:32;;;;;;;20.05;11.38;;;;;;;1.36;91.13;95666.03;5004453;28;20037;-77
2020/12/07 10:38:58;;;;;;;21.63;12.35;;;;;;;1.25;90.85;95668.38;5008731;28;20041;-76
2020/12/07 10:41:27;;;;;;;20.40;11.57;;;;;;;1.19;91.34;95664.13;5028737;28;20113;-76
2020/12/07 10:43:53;;;;;;;19.70;11.30;;;;;;;1.17;91.65;95668.69;5011494;28;20481;-77
2020/12/07 10:46:19;;;;;;;21.83;12.05;;;;;;;1.24;91.37;95679.63;5028790;28;20032;-77
2020/12/07 10:48:45;;;;;;;22.05;11.43;;;;;;;1.20;91.63;95680.28;5028043;28;20112;-77
2020/12/07 10:51:13;;;;;;;19.35;10.40;;;;;;;1.23;90.75;95685.75;5014787;28;20088;-77
2020/12/07 10:53:39;;;;;;;18.92;10.45;;;;;;;1.17;90.12;95686.66;5013559;28;20064;-77
2020/12/07 10:56:09;;;;;;;22.25;11.73;;;;;;;1.21;90.12;95686.97;5029228;28;20064;-77
2020/12/07 10:58:35;;;;;;;17.35;9.98;;;;;;;1.20;89.79;95686.22;5009286;28;20088;-76
2020/12/07 11:01:01;;;;;;;19.02;11.18;;;;;;;1.07;90.50;95683.84;5033588;28;20506;-77
2020/12/07 11:03:27;;;;;;;23.10;12.18;;;;;;;1.06;91.18;95687.41;5030535;28;20037;-77
2020/12/07 11:05:54;;;;;;;22.75;11.60;;;;;;;1.03;90.79;95680.16;5035565;28;20535;-76
2020/12/07 11:08:37;;;;;;;22.73;11.73;;;;;;;1.04;91.28;95691.97;5009187;28;20037;-77
2020/12/07 11:11:07;;;;;;;22.27;10.98;;;;;;;1.01;91.65;95692.41;5023836;28;20501;-77
2020/12/07 11:13:33;;;;;;;24.75;12.63;;;;;;;0.97;91.93;95686.94;5009654;28;20038;-77
2020/12/07 11:16:04;;;;;;;22.35;11.40;;;;;;;0.99;91.69;95686.72;5025988;28;20043;-77
2020/12/07 11:18:30;;;;;;;22.20;11.90;;;;;;;1.03;91.61;95680.16;5007697;28;20582;-76
2020/12/07 11:20:56;;;;;;;25.42;12.90;;;;;;;1.03;91.54;95682.72;5007322;28;20124;-76
2020/12/07 11:23:23;;;;;;;21.83;10.95;;;;;;;1.00;92.26;95690.84;5022674;28;20109;-76
2020/12/07 11:25:50;;;;;;;23.42;11.60;;;;;;;1.02;92.69;95683.72;5023118;28;20022;-77
2020/12/07 11:28:16;;;;;;;23.45;12.25;;;;;;;1.05;92.39;95678.94;5007528;28;20463;-77
2020/12/07 11:30:42;;;;;;;23.98;11.60;;;;;;;1.02;92.62;95671.69;5026497;28;20095;-77
2020/12/07 11:33:07;;;;;;;26.65;13.70;;;;;;;1.00;92.58;95668.56;5026375;28;20226;-76
2020/12/07 11:35:33;;;;;;;21.75;11.25;;;;;;;1.06;92.54;95662.56;5024720;28;20037;-77
2020/12/07 11:38:08;;;;;;;25.55;13.02;;;;;;;1.03;92.50;95657.06;4997901;28;20042;-77
2020/12/07 11:43:21;;;;;;;23.88;12.30;;;;;;;1.03;92.40;95663.00;5012586;28;20084;-76
2020/12/07 11:45:47;;;;;;;25.02;12.60;;;;;;;1.05;92.48;95658.44;5025781;28;20038;-76
2020/12/07 11:48:14;;;;;;;24.25;11.65;;;;;;;1.05;92.90;95665.34;5026796;28;20427;-76
2020/12/07 11:50:40;;;;;;;29.30;13.38;;;;;;;1.01;92.79;95659.88;5010864;28;20065;-76
2020/12/07 11:53:06;;;;;;;22.83;12.27;;;;;;;1.06;93.10;95661.78;5017580;28;20030;-77
2020/12/07 11:55:35;;;;;;;24.45;12.93;;;;;;;1.00;93.26;95654.97;5008079;28;20353;-77
2020/12/07 11:58:01;;;;;;;22.42;11.98;;;;;;;1.10;92.50;95671.38;5013055;28;20041;-76
2020/12/07 12:00:29;;;;;;;21.27;11.27;;;;;;;1.13;92.04;95670.13;5032456;28;20041;-77